sensor_id;sensor_type;location;lat;lon;timestamp;P1;durP1;ratioP1;P2;durP2;ratioP2
9942;SDS011;5010;45.080;7.634;2023-05-02T00:00:44;6.47;;;4.05;;
9942;SDS011;5010;45.080;7.634;2023-05-02T00:03:11;8.52;;;4.70;;
9942;SDS011;5010;45.080;7.634;2023-05-02T00:05:38;6.25;;;4.25;;
9942;SDS011;5010;45.080;7.634;2023-05-02T00:08:06;5.20;;;4.30;;
9942;SDS011;5010;45.080;7.634;2023-05-02T00:10:34;6.80;;;5.97;;
9942;SDS011;5010;45.080;7.634;2023-05-02T00:13:01;5.20;;;4.30;;
9942;SDS011;5010;45.080;7.634;2023-05-02T00:15:28;5.97;;;5.63;;
9942;SDS011;5010;45.080;7.634;2023-05-02T00:17:55;5.78;;;4.40;;
9942;SDS011;5010;45.080;7.634;2023-05-02T00:20:21;6.80;;;5.15;;
9942;SDS011;5010;45.080;7.634;2023-05-02T00:22:48;7.00;;;4.43;;
9942;SDS011;5010;45.080;7.634;2023-05-02T00:25:15;6.07;;;4.95;;
9942;SDS011;5010;45.080;7.634;2023-05-02T00:27:44;7.40;;;4.20;;
9942;SDS011;5010;45.080;7.634;2023-05-02T00:30:11;8.85;;;5.55;;
9942;SDS011;5010;45.080;7.634;2023-05-02T00:32:38;4.93;;;4.50;;
9942;SDS011;5010;45.080;7.634;2023-05-02T00:35:06;6.40;;;5.72;;
9942;SDS011;5010;45.080;7.634;2023-05-02T00:37:33;5.50;;;4.70;;
9942;SDS011;5010;45.080;7.634;2023-05-02T00:40:00;6.13;;;4.95;;
9942;SDS011;5010;45.080;7.634;2023-05-02T00:42:27;5.05;;;4.80;;
9942;SDS011;5010;45.080;7.634;2023-05-02T00:44:57;6.47;;;4.47;;
9942;SDS011;5010;45.080;7.634;2023-05-02T00:47:24;7.15;;;4.65;;
9942;SDS011;5010;45.080;7.634;2023-05-02T00:49:51;5.70;;;4.80;;
9942;SDS011;5010;45.080;7.634;2023-05-02T00:52:18;5.47;;;5.07;;
9942;SDS011;5010;45.080;7.634;2023-05-02T00:54:45;5.95;;;4.15;;
9942;SDS011;5010;45.080;7.634;2023-05-02T00:57:12;7.25;;;5.32;;
9942;SDS011;5010;45.080;7.634;2023-05-02T00:59:39;6.43;;;5.80;;
9942;SDS011;5010;45.080;7.634;2023-05-02T01:02:15;6.00;;;5.70;;
9942;SDS011;5010;45.080;7.634;2023-05-02T01:04:59;7.53;;;5.20;;
9942;SDS011;5010;45.080;7.634;2023-05-02T01:07:41;6.25;;;5.05;;
9942;SDS011;5010;45.080;7.634;2023-05-02T01:10:19;5.40;;;4.60;;
9942;SDS011;5010;45.080;7.634;2023-05-02T01:12:53;5.38;;;4.45;;
9942;SDS011;5010;45.080;7.634;2023-05-02T01:15:24;5.50;;;4.28;;
9942;SDS011;5010;45.080;7.634;2023-05-02T01:17:54;5.35;;;4.72;;
9942;SDS011;5010;45.080;7.634;2023-05-02T01:20:22;6.20;;;4.32;;
9942;SDS011;5010;45.080;7.634;2023-05-02T01:22:54;6.03;;;4.90;;
9942;SDS011;5010;45.080;7.634;2023-05-02T01:25:30;5.25;;;3.50;;
9942;SDS011;5010;45.080;7.634;2023-05-02T01:28:08;6.22;;;5.55;;
9942;SDS011;5010;45.080;7.634;2023-05-02T01:30:46;8.45;;;4.82;;
9942;SDS011;5010;45.080;7.634;2023-05-02T01:33:16;6.63;;;3.92;;
9942;SDS011;5010;45.080;7.634;2023-05-02T01:35:44;5.57;;;4.80;;
9942;SDS011;5010;45.080;7.634;2023-05-02T01:38:14;5.30;;;4.05;;
9942;SDS011;5010;45.080;7.634;2023-05-02T01:40:43;5.43;;;4.43;;
9942;SDS011;5010;45.080;7.634;2023-05-02T01:43:11;7.53;;;5.43;;
9942;SDS011;5010;45.080;7.634;2023-05-02T01:45:39;5.47;;;5.20;;
9942;SDS011;5010;45.080;7.634;2023-05-02T01:48:10;5.65;;;4.53;;
9942;SDS011;5010;45.080;7.634;2023-05-02T01:50:38;5.65;;;4.00;;
9942;SDS011;5010;45.080;7.634;2023-05-02T01:53:08;5.75;;;5.40;;
9942;SDS011;5010;45.080;7.634;2023-05-02T01:55:38;6.20;;;4.50;;
9942;SDS011;5010;45.080;7.634;2023-05-02T01:58:07;6.15;;;4.93;;
9942;SDS011;5010;45.080;7.634;2023-05-02T02:00:35;5.50;;;4.93;;
9942;SDS011;5010;45.080;7.634;2023-05-02T02:03:03;5.30;;;4.70;;
9942;SDS011;5010;45.080;7.634;2023-05-02T02:05:33;6.00;;;4.22;;
9942;SDS011;5010;45.080;7.634;2023-05-02T02:08:01;6.20;;;5.03;;
9942;SDS011;5010;45.080;7.634;2023-05-02T02:10:29;5.35;;;4.55;;
9942;SDS011;5010;45.080;7.634;2023-05-02T02:13:03;5.50;;;4.95;;
9942;SDS011;5010;45.080;7.634;2023-05-02T02:15:34;6.50;;;6.13;;
9942;SDS011;5010;45.080;7.634;2023-05-02T02:18:04;5.63;;;4.85;;
9942;SDS011;5010;45.080;7.634;2023-05-02T02:20:36;7.03;;;6.70;;
9942;SDS011;5010;45.080;7.634;2023-05-02T02:23:06;6.25;;;4.40;;
9942;SDS011;5010;45.080;7.634;2023-05-02T02:25:34;6.03;;;5.30;;
9942;SDS011;5010;45.080;7.634;2023-05-02T02:28:02;5.90;;;5.60;;
9942;SDS011;5010;45.080;7.634;2023-05-02T02:30:29;5.40;;;4.82;;
9942;SDS011;5010;45.080;7.634;2023-05-02T02:32:56;5.57;;;4.78;;
9942;SDS011;5010;45.080;7.634;2023-05-02T02:35:24;6.30;;;4.53;;
9942;SDS011;5010;45.080;7.634;2023-05-02T02:37:58;5.47;;;3.90;;
9942;SDS011;5010;45.080;7.634;2023-05-02T02:40:30;5.40;;;4.22;;
9942;SDS011;5010;45.080;7.634;2023-05-02T02:43:05;6.57;;;5.22;;
9942;SDS011;5010;45.080;7.634;2023-05-02T02:45:40;5.93;;;4.45;;
9942;SDS011;5010;45.080;7.634;2023-05-02T02:48:18;5.80;;;4.88;;
9942;SDS011;5010;45.080;7.634;2023-05-02T02:50:53;5.25;;;4.63;;
9942;SDS011;5010;45.080;7.634;2023-05-02T02:53:32;11.35;;;4.78;;
9942;SDS011;5010;45.080;7.634;2023-05-02T02:56:10;5.68;;;4.43;;
9942;SDS011;5010;45.080;7.634;2023-05-02T02:58:42;5.22;;;4.50;;
9942;SDS011;5010;45.080;7.634;2023-05-02T03:01:14;6.38;;;4.60;;
9942;SDS011;5010;45.080;7.634;2023-05-02T03:03:43;5.68;;;3.95;;
9942;SDS011;5010;45.080;7.634;2023-05-02T03:06:12;5.95;;;3.92;;
9942;SDS011;5010;45.080;7.634;2023-05-02T03:08:41;5.70;;;3.58;;
9942;SDS011;5010;45.080;7.634;2023-05-02T03:11:08;5.32;;;3.83;;
9942;SDS011;5010;45.080;7.634;2023-05-02T03:13:36;5.57;;;4.40;;
9942;SDS011;5010;45.080;7.634;2023-05-02T03:18:55;6.70;;;3.85;;
9942;SDS011;5010;45.080;7.634;2023-05-02T03:21:22;5.32;;;4.43;;
9942;SDS011;5010;45.080;7.634;2023-05-02T03:23:50;5.22;;;4.20;;
9942;SDS011;5010;45.080;7.634;2023-05-02T03:26:17;7.03;;;5.15;;
9942;SDS011;5010;45.080;7.634;2023-05-02T03:28:44;6.47;;;5.00;;
9942;SDS011;5010;45.080;7.634;2023-05-02T03:31:11;5.47;;;4.53;;
9942;SDS011;5010;45.080;7.634;2023-05-02T03:33:38;4.78;;;3.80;;
9942;SDS011;5010;45.080;7.634;2023-05-02T03:36:05;5.55;;;4.25;;
9942;SDS011;5010;45.080;7.634;2023-05-02T03:38:32;5.22;;;3.85;;
9942;SDS011;5010;45.080;7.634;2023-05-02T03:41:00;7.75;;;5.47;;
9942;SDS011;5010;45.080;7.634;2023-05-02T03:43:28;6.78;;;4.13;;
9942;SDS011;5010;45.080;7.634;2023-05-02T03:45:55;5.35;;;4.70;;
9942;SDS011;5010;45.080;7.634;2023-05-02T03:48:22;7.07;;;5.13;;
9942;SDS011;5010;45.080;7.634;2023-05-02T03:50:49;6.40;;;4.22;;
9942;SDS011;5010;45.080;7.634;2023-05-02T03:53:15;5.10;;;4.50;;
9942;SDS011;5010;45.080;7.634;2023-05-02T03:55:42;6.70;;;5.05;;
9942;SDS011;5010;45.080;7.634;2023-05-02T03:58:11;5.07;;;4.10;;
9942;SDS011;5010;45.080;7.634;2023-05-02T04:00:38;5.07;;;4.20;;
9942;SDS011;5010;45.080;7.634;2023-05-02T04:03:05;6.32;;;4.80;;
9942;SDS011;5010;45.080;7.634;2023-05-02T04:05:32;5.22;;;4.45;;
9942;SDS011;5010;45.080;7.634;2023-05-02T04:07:59;6.78;;;4.68;;
9942;SDS011;5010;45.080;7.634;2023-05-02T04:10:27;5.47;;;3.92;;
9942;SDS011;5010;45.080;7.634;2023-05-02T04:12:54;4.88;;;3.83;;
9942;SDS011;5010;45.080;7.634;2023-05-02T04:15:22;5.00;;;3.65;;
9942;SDS011;5010;45.080;7.634;2023-05-02T04:17:49;4.97;;;3.50;;
9942;SDS011;5010;45.080;7.634;2023-05-02T04:20:16;7.43;;;4.80;;
9942;SDS011;5010;45.080;7.634;2023-05-02T04:22:43;4.82;;;3.72;;
9942;SDS011;5010;45.080;7.634;2023-05-02T04:25:11;5.20;;;3.60;;
9942;SDS011;5010;45.080;7.634;2023-05-02T04:27:38;5.20;;;3.90;;
9942;SDS011;5010;45.080;7.634;2023-05-02T04:30:05;5.32;;;4.70;;
9942;SDS011;5010;45.080;7.634;2023-05-02T04:32:35;6.10;;;5.22;;
9942;SDS011;5010;45.080;7.634;2023-05-02T04:35:03;4.85;;;4.18;;
9942;SDS011;5010;45.080;7.634;2023-05-02T04:37:30;6.15;;;4.53;;
9942;SDS011;5010;45.080;7.634;2023-05-02T04:39:57;7.30;;;5.55;;
9942;SDS011;5010;45.080;7.634;2023-05-02T04:42:24;5.97;;;4.38;;
9942;SDS011;5010;45.080;7.634;2023-05-02T04:44:51;5.57;;;5.28;;
9942;SDS011;5010;45.080;7.634;2023-05-02T04:47:18;5.88;;;4.70;;
9942;SDS011;5010;45.080;7.634;2023-05-02T04:49:46;5.60;;;4.00;;
9942;SDS011;5010;45.080;7.634;2023-05-02T04:52:13;5.38;;;3.75;;
9942;SDS011;5010;45.080;7.634;2023-05-02T04:54:40;5.28;;;4.32;;
9942;SDS011;5010;45.080;7.634;2023-05-02T04:57:07;5.72;;;4.88;;
9942;SDS011;5010;45.080;7.634;2023-05-02T04:59:34;4.85;;;3.92;;
9942;SDS011;5010;45.080;7.634;2023-05-02T05:02:02;5.47;;;4.45;;
9942;SDS011;5010;45.080;7.634;2023-05-02T05:04:29;4.97;;;4.55;;
9942;SDS011;5010;45.080;7.634;2023-05-02T05:06:57;4.95;;;4.07;;
9942;SDS011;5010;45.080;7.634;2023-05-02T05:09:24;5.80;;;5.43;;
9942;SDS011;5010;45.080;7.634;2023-05-02T05:11:51;5.28;;;4.68;;
9942;SDS011;5010;45.080;7.634;2023-05-02T05:14:17;5.20;;;4.72;;
9942;SDS011;5010;45.080;7.634;2023-05-02T05:16:44;5.85;;;3.83;;
9942;SDS011;5010;45.080;7.634;2023-05-02T05:19:11;7.05;;;4.57;;
9942;SDS011;5010;45.080;7.634;2023-05-02T05:21:38;5.05;;;4.10;;
9942;SDS011;5010;45.080;7.634;2023-05-02T05:24:06;4.75;;;3.67;;
9942;SDS011;5010;45.080;7.634;2023-05-02T05:26:33;5.20;;;3.35;;
9942;SDS011;5010;45.080;7.634;2023-05-02T05:29:00;6.03;;;4.10;;
9942;SDS011;5010;45.080;7.634;2023-05-02T05:31:27;5.68;;;4.70;;
9942;SDS011;5010;45.080;7.634;2023-05-02T05:33:54;4.93;;;4.15;;
9942;SDS011;5010;45.080;7.634;2023-05-02T05:36:21;5.65;;;4.72;;
9942;SDS011;5010;45.080;7.634;2023-05-02T05:38:48;5.03;;;3.88;;
9942;SDS011;5010;45.080;7.634;2023-05-02T05:41:17;4.72;;;3.50;;
9942;SDS011;5010;45.080;7.634;2023-05-02T05:43:43;6.15;;;4.60;;
9942;SDS011;5010;45.080;7.634;2023-05-02T05:46:10;5.07;;;4.07;;
9942;SDS011;5010;45.080;7.634;2023-05-02T05:48:37;10.00;;;5.25;;
9942;SDS011;5010;45.080;7.634;2023-05-02T05:51:04;5.82;;;4.10;;
9942;SDS011;5010;45.080;7.634;2023-05-02T05:53:31;6.32;;;4.50;;
9942;SDS011;5010;45.080;7.634;2023-05-02T05:55:58;5.55;;;4.20;;
9942;SDS011;5010;45.080;7.634;2023-05-02T05:58:34;5.22;;;4.07;;
9942;SDS011;5010;45.080;7.634;2023-05-02T06:01:03;5.25;;;4.00;;
9942;SDS011;5010;45.080;7.634;2023-05-02T06:03:30;5.82;;;4.30;;
9942;SDS011;5010;45.080;7.634;2023-05-02T06:05:57;6.82;;;4.10;;
9942;SDS011;5010;45.080;7.634;2023-05-02T06:08:24;6.57;;;4.60;;
9942;SDS011;5010;45.080;7.634;2023-05-02T06:10:51;5.55;;;4.30;;
9942;SDS011;5010;45.080;7.634;2023-05-02T06:13:17;4.95;;;3.90;;
9942;SDS011;5010;45.080;7.634;2023-05-02T06:15:46;5.40;;;4.05;;
9942;SDS011;5010;45.080;7.634;2023-05-02T06:18:13;6.03;;;4.53;;
9942;SDS011;5010;45.080;7.634;2023-05-02T06:20:40;5.57;;;5.28;;
9942;SDS011;5010;45.080;7.634;2023-05-02T06:23:07;7.57;;;4.80;;
9942;SDS011;5010;45.080;7.634;2023-05-02T06:25:36;5.03;;;3.70;;
9942;SDS011;5010;45.080;7.634;2023-05-02T06:28:03;5.53;;;4.90;;
9942;SDS011;5010;45.080;7.634;2023-05-02T06:30:31;8.00;;;3.60;;
9942;SDS011;5010;45.080;7.634;2023-05-02T06:32:59;4.82;;;3.63;;
9942;SDS011;5010;45.080;7.634;2023-05-02T06:35:28;5.40;;;3.58;;
9942;SDS011;5010;45.080;7.634;2023-05-02T06:37:55;5.97;;;3.90;;
9942;SDS011;5010;45.080;7.634;2023-05-02T06:40:22;6.70;;;4.10;;
9942;SDS011;5010;45.080;7.634;2023-05-02T06:42:50;6.20;;;4.00;;
9942;SDS011;5010;45.080;7.634;2023-05-02T06:45:17;5.57;;;4.55;;
9942;SDS011;5010;45.080;7.634;2023-05-02T06:47:44;11.48;;;4.07;;
9942;SDS011;5010;45.080;7.634;2023-05-02T06:50:12;5.50;;;4.60;;
9942;SDS011;5010;45.080;7.634;2023-05-02T06:52:39;5.90;;;4.22;;
9942;SDS011;5010;45.080;7.634;2023-05-02T06:55:06;6.70;;;4.43;;
9942;SDS011;5010;45.080;7.634;2023-05-02T06:57:33;5.95;;;3.00;;
9942;SDS011;5010;45.080;7.634;2023-05-02T07:00:00;6.57;;;3.35;;
9942;SDS011;5010;45.080;7.634;2023-05-02T07:02:28;5.85;;;3.45;;
9942;SDS011;5010;45.080;7.634;2023-05-02T07:04:55;4.90;;;3.10;;
9942;SDS011;5010;45.080;7.634;2023-05-02T07:07:23;9.10;;;3.90;;
9942;SDS011;5010;45.080;7.634;2023-05-02T07:09:50;6.38;;;3.30;;
9942;SDS011;5010;45.080;7.634;2023-05-02T07:12:17;6.47;;;4.25;;
9942;SDS011;5010;45.080;7.634;2023-05-02T07:14:44;5.45;;;3.50;;
9942;SDS011;5010;45.080;7.634;2023-05-02T07:17:11;6.18;;;3.80;;
9942;SDS011;5010;45.080;7.634;2023-05-02T07:19:39;6.57;;;4.55;;
9942;SDS011;5010;45.080;7.634;2023-05-02T07:22:06;5.45;;;3.58;;
9942;SDS011;5010;45.080;7.634;2023-05-02T07:24:34;6.13;;;4.45;;
9942;SDS011;5010;45.080;7.634;2023-05-02T07:27:05;5.68;;;3.63;;
9942;SDS011;5010;45.080;7.634;2023-05-02T07:29:33;6.93;;;4.30;;
9942;SDS011;5010;45.080;7.634;2023-05-02T07:32:00;5.97;;;4.03;;
9942;SDS011;5010;45.080;7.634;2023-05-02T07:34:27;5.18;;;3.50;;
9942;SDS011;5010;45.080;7.634;2023-05-02T07:36:54;5.05;;;3.47;;
9942;SDS011;5010;45.080;7.634;2023-05-02T07:39:21;5.15;;;3.55;;
9942;SDS011;5010;45.080;7.634;2023-05-02T07:41:51;5.95;;;3.70;;
9942;SDS011;5010;45.080;7.634;2023-05-02T07:44:18;5.60;;;4.00;;
9942;SDS011;5010;45.080;7.634;2023-05-02T07:46:45;11.13;;;4.47;;
9942;SDS011;5010;45.080;7.634;2023-05-02T07:49:12;5.43;;;3.45;;
9942;SDS011;5010;45.080;7.634;2023-05-02T07:51:38;4.68;;;2.92;;
9942;SDS011;5010;45.080;7.634;2023-05-02T07:54:13;15.82;;;3.60;;
9942;SDS011;5010;45.080;7.634;2023-05-02T07:56:41;6.30;;;4.20;;
9942;SDS011;5010;45.080;7.634;2023-05-02T07:59:09;6.15;;;3.90;;
9942;SDS011;5010;45.080;7.634;2023-05-02T08:01:36;7.72;;;3.13;;
9942;SDS011;5010;45.080;7.634;2023-05-02T08:04:03;6.10;;;4.28;;
9942;SDS011;5010;45.080;7.634;2023-05-02T08:06:30;5.68;;;3.67;;
9942;SDS011;5010;45.080;7.634;2023-05-02T08:08:58;5.53;;;3.80;;
9942;SDS011;5010;45.080;7.634;2023-05-02T08:11:25;5.40;;;3.75;;
9942;SDS011;5010;45.080;7.634;2023-05-02T08:13:51;4.63;;;3.05;;
9942;SDS011;5010;45.080;7.634;2023-05-02T08:16:20;6.18;;;4.25;;
9942;SDS011;5010;45.080;7.634;2023-05-02T08:18:47;6.10;;;4.10;;
9942;SDS011;5010;45.080;7.634;2023-05-02T08:21:14;6.05;;;3.90;;
9942;SDS011;5010;45.080;7.634;2023-05-02T08:23:41;7.00;;;3.75;;
9942;SDS011;5010;45.080;7.634;2023-05-02T08:26:09;5.40;;;3.13;;
9942;SDS011;5010;45.080;7.634;2023-05-02T08:28:36;5.90;;;4.20;;
9942;SDS011;5010;45.080;7.634;2023-05-02T08:31:02;5.05;;;3.30;;
9942;SDS011;5010;45.080;7.634;2023-05-02T08:33:31;5.90;;;3.90;;
9942;SDS011;5010;45.080;7.634;2023-05-02T08:35:58;7.05;;;3.50;;
9942;SDS011;5010;45.080;7.634;2023-05-02T08:38:25;4.25;;;2.85;;
9942;SDS011;5010;45.080;7.634;2023-05-02T08:40:52;4.65;;;3.70;;
9942;SDS011;5010;45.080;7.634;2023-05-02T08:43:19;5.40;;;3.78;;
9942;SDS011;5010;45.080;7.634;2023-05-02T08:45:46;4.70;;;3.30;;
9942;SDS011;5010;45.080;7.634;2023-05-02T08:48:17;5.07;;;3.88;;
9942;SDS011;5010;45.080;7.634;2023-05-02T08:50:46;4.28;;;3.15;;
9942;SDS011;5010;45.080;7.634;2023-05-02T08:53:14;5.57;;;4.43;;
9942;SDS011;5010;45.080;7.634;2023-05-02T08:55:43;4.30;;;2.63;;
9942;SDS011;5010;45.080;7.634;2023-05-02T08:58:10;6.00;;;2.97;;
9942;SDS011;5010;45.080;7.634;2023-05-02T09:00:38;4.45;;;3.50;;
9942;SDS011;5010;45.080;7.634;2023-05-02T09:03:08;4.78;;;2.97;;
9942;SDS011;5010;45.080;7.634;2023-05-02T09:05:48;5.15;;;3.33;;
9942;SDS011;5010;45.080;7.634;2023-05-02T09:08:20;5.97;;;4.55;;
9942;SDS011;5010;45.080;7.634;2023-05-02T09:10:47;4.50;;;3.20;;
9942;SDS011;5010;45.080;7.634;2023-05-02T09:13:27;4.63;;;2.58;;
9942;SDS011;5010;45.080;7.634;2023-05-02T09:15:58;4.75;;;3.00;;
9942;SDS011;5010;45.080;7.634;2023-05-02T09:18:27;5.13;;;2.90;;
9942;SDS011;5010;45.080;7.634;2023-05-02T09:20:56;4.75;;;3.35;;
9942;SDS011;5010;45.080;7.634;2023-05-02T09:23:33;5.43;;;3.30;;
9942;SDS011;5010;45.080;7.634;2023-05-02T09:26:01;4.20;;;3.00;;
9942;SDS011;5010;45.080;7.634;2023-05-02T09:28:39;4.22;;;3.10;;
9942;SDS011;5010;45.080;7.634;2023-05-02T09:31:08;4.43;;;2.75;;
9942;SDS011;5010;45.080;7.634;2023-05-02T09:33:36;5.80;;;4.18;;
9942;SDS011;5010;45.080;7.634;2023-05-02T09:36:06;7.07;;;4.20;;
9942;SDS011;5010;45.080;7.634;2023-05-02T09:38:34;4.75;;;3.70;;
9942;SDS011;5010;45.080;7.634;2023-05-02T09:41:01;5.10;;;3.33;;
9942;SDS011;5010;45.080;7.634;2023-05-02T09:43:28;5.15;;;3.28;;
9942;SDS011;5010;45.080;7.634;2023-05-02T09:45:57;5.28;;;4.50;;
9942;SDS011;5010;45.080;7.634;2023-05-02T09:48:25;6.25;;;4.85;;
9942;SDS011;5010;45.080;7.634;2023-05-02T09:50:53;5.38;;;3.53;;
9942;SDS011;5010;45.080;7.634;2023-05-02T09:53:21;4.95;;;4.32;;
9942;SDS011;5010;45.080;7.634;2023-05-02T09:56:03;4.13;;;2.70;;
9942;SDS011;5010;45.080;7.634;2023-05-02T09:58:30;4.90;;;3.45;;
9942;SDS011;5010;45.080;7.634;2023-05-02T10:00:57;4.53;;;3.10;;
9942;SDS011;5010;45.080;7.634;2023-05-02T10:03:26;4.68;;;2.85;;
9942;SDS011;5010;45.080;7.634;2023-05-02T10:05:54;5.07;;;3.40;;
9942;SDS011;5010;45.080;7.634;2023-05-02T10:08:23;4.20;;;2.88;;
9942;SDS011;5010;45.080;7.634;2023-05-02T10:10:53;6.57;;;4.93;;
9942;SDS011;5010;45.080;7.634;2023-05-02T10:13:21;6.60;;;3.47;;
9942;SDS011;5010;45.080;7.634;2023-05-02T10:15:53;8.75;;;3.58;;
9942;SDS011;5010;45.080;7.634;2023-05-02T10:18:26;4.82;;;3.88;;
9942;SDS011;5010;45.080;7.634;2023-05-02T10:20:59;5.65;;;3.63;;
9942;SDS011;5010;45.080;7.634;2023-05-02T10:23:32;8.48;;;3.05;;
9942;SDS011;5010;45.080;7.634;2023-05-02T10:25:59;7.60;;;3.72;;
9942;SDS011;5010;45.080;7.634;2023-05-02T10:28:27;4.95;;;3.25;;
9942;SDS011;5010;45.080;7.634;2023-05-02T10:30:55;6.25;;;3.55;;
9942;SDS011;5010;45.080;7.634;2023-05-02T10:33:23;4.32;;;3.42;;
9942;SDS011;5010;45.080;7.634;2023-05-02T10:35:50;4.10;;;2.80;;
9942;SDS011;5010;45.080;7.634;2023-05-02T10:38:18;4.45;;;2.95;;
9942;SDS011;5010;45.080;7.634;2023-05-02T10:40:50;4.32;;;3.10;;
9942;SDS011;5010;45.080;7.634;2023-05-02T10:43:21;4.50;;;3.13;;
9942;SDS011;5010;45.080;7.634;2023-05-02T10:45:51;4.20;;;2.90;;
9942;SDS011;5010;45.080;7.634;2023-05-02T10:48:19;4.95;;;3.42;;
9942;SDS011;5010;45.080;7.634;2023-05-02T10:50:47;5.28;;;3.45;;
9942;SDS011;5010;45.080;7.634;2023-05-02T10:53:28;5.80;;;3.97;;
9942;SDS011;5010;45.080;7.634;2023-05-02T10:56:17;5.70;;;3.25;;
9942;SDS011;5010;45.080;7.634;2023-05-02T10:58:46;4.90;;;3.30;;
9942;SDS011;5010;45.080;7.634;2023-05-02T11:01:32;5.93;;;4.28;;
9942;SDS011;5010;45.080;7.634;2023-05-02T11:04:02;4.35;;;3.00;;
9942;SDS011;5010;45.080;7.634;2023-05-02T11:06:31;4.43;;;3.17;;
9942;SDS011;5010;45.080;7.634;2023-05-02T11:12:00;5.63;;;3.70;;
9942;SDS011;5010;45.080;7.634;2023-05-02T11:14:44;5.68;;;3.45;;
9942;SDS011;5010;45.080;7.634;2023-05-02T11:17:17;6.38;;;3.05;;
9942;SDS011;5010;45.080;7.634;2023-05-02T11:22:48;4.50;;;3.50;;
9942;SDS011;5010;45.080;7.634;2023-05-02T11:25:32;4.43;;;3.35;;
9942;SDS011;5010;45.080;7.634;2023-05-02T11:28:04;6.18;;;3.70;;
9942;SDS011;5010;45.080;7.634;2023-05-02T11:33:17;4.00;;;2.90;;
9942;SDS011;5010;45.080;7.634;2023-05-02T11:35:47;5.13;;;4.00;;
9942;SDS011;5010;45.080;7.634;2023-05-02T11:38:15;4.10;;;3.10;;
9942;SDS011;5010;45.080;7.634;2023-05-02T11:40:56;4.55;;;3.40;;
9942;SDS011;5010;45.080;7.634;2023-05-02T11:43:26;4.80;;;4.45;;
9942;SDS011;5010;45.080;7.634;2023-05-02T11:45:54;4.93;;;3.72;;
9942;SDS011;5010;45.080;7.634;2023-05-02T11:48:23;5.00;;;4.07;;
9942;SDS011;5010;45.080;7.634;2023-05-02T11:50:52;4.43;;;3.60;;
9942;SDS011;5010;45.080;7.634;2023-05-02T11:53:21;6.18;;;3.63;;
9942;SDS011;5010;45.080;7.634;2023-05-02T11:55:50;6.30;;;3.80;;
9942;SDS011;5010;45.080;7.634;2023-05-02T11:58:19;5.88;;;3.97;;
9942;SDS011;5010;45.080;7.634;2023-05-02T12:00:49;5.18;;;4.20;;
9942;SDS011;5010;45.080;7.634;2023-05-02T12:03:25;4.20;;;2.90;;
9942;SDS011;5010;45.080;7.634;2023-05-02T12:05:54;4.20;;;3.05;;
9942;SDS011;5010;45.080;7.634;2023-05-02T12:08:22;4.50;;;2.83;;
9942;SDS011;5010;45.080;7.634;2023-05-02T12:10:51;5.65;;;3.20;;
9942;SDS011;5010;45.080;7.634;2023-05-02T12:13:19;4.40;;;3.60;;
9942;SDS011;5010;45.080;7.634;2023-05-02T12:15:49;6.50;;;2.33;;
9942;SDS011;5010;45.080;7.634;2023-05-02T12:18:17;4.90;;;3.30;;
9942;SDS011;5010;45.080;7.634;2023-05-02T12:20:47;5.25;;;2.90;;
9942;SDS011;5010;45.080;7.634;2023-05-02T12:23:15;4.68;;;3.00;;
9942;SDS011;5010;45.080;7.634;2023-05-02T12:25:43;3.95;;;2.40;;
9942;SDS011;5010;45.080;7.634;2023-05-02T12:28:10;4.20;;;2.80;;
9942;SDS011;5010;45.080;7.634;2023-05-02T12:30:37;5.50;;;2.30;;
9942;SDS011;5010;45.080;7.634;2023-05-02T12:33:06;4.45;;;2.67;;
9942;SDS011;5010;45.080;7.634;2023-05-02T12:35:34;4.30;;;2.63;;
9942;SDS011;5010;45.080;7.634;2023-05-02T12:38:07;6.15;;;2.88;;
9942;SDS011;5010;45.080;7.634;2023-05-02T12:40:36;6.40;;;3.00;;
9942;SDS011;5010;45.080;7.634;2023-05-02T12:43:04;5.15;;;3.42;;
9942;SDS011;5010;45.080;7.634;2023-05-02T12:45:34;4.93;;;3.40;;
9942;SDS011;5010;45.080;7.634;2023-05-02T12:48:02;4.47;;;2.85;;
9942;SDS011;5010;45.080;7.634;2023-05-02T12:50:44;4.22;;;2.70;;
9942;SDS011;5010;45.080;7.634;2023-05-02T12:53:12;5.68;;;3.20;;
9942;SDS011;5010;45.080;7.634;2023-05-02T12:55:39;6.32;;;3.58;;
9942;SDS011;5010;45.080;7.634;2023-05-02T12:58:07;4.45;;;2.72;;
9942;SDS011;5010;45.080;7.634;2023-05-02T13:00:35;5.10;;;3.08;;
9942;SDS011;5010;45.080;7.634;2023-05-02T13:03:03;5.43;;;3.38;;
9942;SDS011;5010;45.080;7.634;2023-05-02T13:05:32;5.95;;;3.15;;
9942;SDS011;5010;45.080;7.634;2023-05-02T13:08:00;6.18;;;3.40;;
9942;SDS011;5010;45.080;7.634;2023-05-02T13:10:27;5.18;;;3.42;;
9942;SDS011;5010;45.080;7.634;2023-05-02T13:12:54;5.75;;;3.20;;
9942;SDS011;5010;45.080;7.634;2023-05-02T13:15:21;4.68;;;3.13;;
9942;SDS011;5010;45.080;7.634;2023-05-02T13:17:49;5.00;;;3.40;;
9942;SDS011;5010;45.080;7.634;2023-05-02T13:20:17;11.32;;;3.30;;
9942;SDS011;5010;45.080;7.634;2023-05-02T13:22:45;7.57;;;4.10;;
9942;SDS011;5010;45.080;7.634;2023-05-02T13:25:12;6.60;;;3.90;;
9942;SDS011;5010;45.080;7.634;2023-05-02T13:27:39;5.20;;;4.00;;
9942;SDS011;5010;45.080;7.634;2023-05-02T13:30:07;5.82;;;3.22;;
9942;SDS011;5010;45.080;7.634;2023-05-02T13:32:35;6.53;;;4.20;;
9942;SDS011;5010;45.080;7.634;2023-05-02T13:35:03;6.80;;;3.75;;
9942;SDS011;5010;45.080;7.634;2023-05-02T13:37:31;6.72;;;3.22;;
9942;SDS011;5010;45.080;7.634;2023-05-02T13:39:59;4.65;;;3.10;;
9942;SDS011;5010;45.080;7.634;2023-05-02T13:42:26;4.50;;;3.17;;
9942;SDS011;5010;45.080;7.634;2023-05-02T13:44:53;4.57;;;3.10;;
9942;SDS011;5010;45.080;7.634;2023-05-02T13:47:20;5.00;;;4.13;;
9942;SDS011;5010;45.080;7.634;2023-05-02T13:49:47;5.78;;;3.90;;
9942;SDS011;5010;45.080;7.634;2023-05-02T13:52:14;7.13;;;3.70;;
9942;SDS011;5010;45.080;7.634;2023-05-02T13:54:41;5.00;;;3.58;;
9942;SDS011;5010;45.080;7.634;2023-05-02T13:57:10;5.35;;;3.10;;
9942;SDS011;5010;45.080;7.634;2023-05-02T13:59:37;4.60;;;3.20;;
9942;SDS011;5010;45.080;7.634;2023-05-02T14:02:04;7.15;;;3.72;;
9942;SDS011;5010;45.080;7.634;2023-05-02T14:04:31;4.43;;;3.60;;
9942;SDS011;5010;45.080;7.634;2023-05-02T14:06:57;4.93;;;3.65;;
9942;SDS011;5010;45.080;7.634;2023-05-02T14:09:24;6.10;;;3.72;;
9942;SDS011;5010;45.080;7.634;2023-05-02T14:11:51;4.63;;;2.85;;
9942;SDS011;5010;45.080;7.634;2023-05-02T14:14:20;5.57;;;2.70;;
9942;SDS011;5010;45.080;7.634;2023-05-02T14:16:47;4.22;;;2.58;;
9942;SDS011;5010;45.080;7.634;2023-05-02T14:19:15;5.25;;;2.50;;
9942;SDS011;5010;45.080;7.634;2023-05-02T14:21:42;4.20;;;2.70;;
9942;SDS011;5010;45.080;7.634;2023-05-02T14:24:09;5.10;;;3.15;;
9942;SDS011;5010;45.080;7.634;2023-05-02T14:26:38;4.70;;;2.80;;
9942;SDS011;5010;45.080;7.634;2023-05-02T14:29:05;4.60;;;2.80;;
9942;SDS011;5010;45.080;7.634;2023-05-02T14:31:34;4.15;;;2.70;;
9942;SDS011;5010;45.080;7.634;2023-05-02T14:34:01;5.38;;;2.92;;
9942;SDS011;5010;45.080;7.634;2023-05-02T14:36:27;4.50;;;2.70;;
9942;SDS011;5010;45.080;7.634;2023-05-02T14:38:56;4.72;;;2.83;;
9942;SDS011;5010;45.080;7.634;2023-05-02T14:41:23;5.00;;;2.80;;
9942;SDS011;5010;45.080;7.634;2023-05-02T14:43:51;4.55;;;2.90;;
9942;SDS011;5010;45.080;7.634;2023-05-02T14:46:18;4.20;;;3.13;;
9942;SDS011;5010;45.080;7.634;2023-05-02T14:48:46;4.93;;;3.55;;
9942;SDS011;5010;45.080;7.634;2023-05-02T14:51:13;5.03;;;3.22;;
9942;SDS011;5010;45.080;7.634;2023-05-02T14:53:40;4.20;;;3.20;;
9942;SDS011;5010;45.080;7.634;2023-05-02T14:56:10;4.18;;;3.00;;
9942;SDS011;5010;45.080;7.634;2023-05-02T14:58:39;5.78;;;3.20;;
9942;SDS011;5010;45.080;7.634;2023-05-02T15:01:13;4.95;;;3.90;;
9942;SDS011;5010;45.080;7.634;2023-05-02T15:03:40;5.63;;;3.40;;
9942;SDS011;5010;45.080;7.634;2023-05-02T15:06:09;4.63;;;3.30;;
9942;SDS011;5010;45.080;7.634;2023-05-02T15:08:35;5.65;;;2.60;;
9942;SDS011;5010;45.080;7.634;2023-05-02T15:11:03;5.25;;;2.80;;
9942;SDS011;5010;45.080;7.634;2023-05-02T15:13:30;4.40;;;3.03;;
9942;SDS011;5010;45.080;7.634;2023-05-02T15:15:57;4.10;;;2.80;;
9942;SDS011;5010;45.080;7.634;2023-05-02T15:18:24;4.15;;;3.03;;
9942;SDS011;5010;45.080;7.634;2023-05-02T15:20:51;4.28;;;3.13;;
9942;SDS011;5010;45.080;7.634;2023-05-02T15:23:19;5.20;;;2.80;;
9942;SDS011;5010;45.080;7.634;2023-05-02T15:25:46;5.30;;;3.60;;
9942;SDS011;5010;45.080;7.634;2023-05-02T15:28:13;5.88;;;3.47;;
9942;SDS011;5010;45.080;7.634;2023-05-02T15:30:40;4.00;;;2.83;;
9942;SDS011;5010;45.080;7.634;2023-05-02T15:33:07;5.10;;;3.25;;
9942;SDS011;5010;45.080;7.634;2023-05-02T15:35:34;4.30;;;3.25;;